sensor_id;sensor_type;location;lat;lon;timestamp;pressure;altitude;pressure_sealevel;temperature;humidity
11190;BME280;5651;50.926;4.718;2022-09-27T00:00:27;99733.59;;;10.54;100.00
11190;BME280;5651;50.926;4.718;2022-09-27T00:02:52;99737.13;;;10.52;100.00
11190;BME280;5651;50.926;4.718;2022-09-27T00:05:18;99745.00;;;10.49;100.00
11190;BME280;5651;50.926;4.718;2022-09-27T00:07:44;99753.44;;;10.60;100.00
11190;BME280;5651;50.926;4.718;2022-09-27T00:10:11;99757.88;;;10.56;100.00
11190;BME280;5651;50.926;4.718;2022-09-27T00:12:38;99775.47;;;10.45;100.00
11190;BME280;5651;50.926;4.718;2022-09-27T00:15:05;99778.16;;;10.40;100.00
11190;BME280;5651;50.926;4.718;2022-09-27T00:17:32;99787.66;;;10.43;100.00
11190;BME280;5651;50.926;4.718;2022-09-27T00:19:58;99790.16;;;10.49;100.00
11190;BME280;5651;50.926;4.718;2022-09-27T00:22:25;99789.31;;;10.47;100.00
11190;BME280;5651;50.926;4.718;2022-09-27T00:24:51;99806.03;;;10.37;100.00
11190;BME280;5651;50.926;4.718;2022-09-27T00:27:18;99800.53;;;10.51;100.00
11190;BME280;5651;50.926;4.718;2022-09-27T00:29:44;99807.56;;;10.47;100.00
11190;BME280;5651;50.926;4.718;2022-09-27T00:32:11;99811.03;;;10.46;100.00
11190;BME280;5651;50.926;4.718;2022-09-27T00:34:37;99811.00;;;10.48;100.00
11190;BME280;5651;50.926;4.718;2022-09-27T00:37:03;99805.94;;;10.41;100.00
11190;BME280;5651;50.926;4.718;2022-09-27T00:39:29;99799.94;;;10.38;100.00
11190;BME280;5651;50.926;4.718;2022-09-27T00:41:55;99806.03;;;10.35;100.00
11190;BME280;5651;50.926;4.718;2022-09-27T00:52:09;99825.84;;;10.45;100.00
11190;BME280;5651;50.926;4.718;2022-09-27T00:54:38;99817.09;;;10.46;100.00
11190;BME280;5651;50.926;4.718;2022-09-27T00:57:05;99817.09;;;10.46;100.00
11190;BME280;5651;50.926;4.718;2022-09-27T00:59:34;99817.91;;;10.50;100.00
11190;BME280;5651;50.926;4.718;2022-09-27T01:02:03;99816.13;;;10.52;100.00
11190;BME280;5651;50.926;4.718;2022-09-27T01:04:30;99811.56;;;10.64;100.00
11190;BME280;5651;50.926;4.718;2022-09-27T01:06:58;99820.41;;;10.55;100.00
11190;BME280;5651;50.926;4.718;2022-09-27T01:09:24;99821.44;;;10.48;100.00
11190;BME280;5651;50.926;4.718;2022-09-27T01:12:19;99828.50;;;10.42;100.00
11190;BME280;5651;50.926;4.718;2022-09-27T01:42:30;99833.16;;;10.23;100.00
11190;BME280;5651;50.926;4.718;2022-09-27T01:45:13;99827.09;;;10.24;100.00
11190;BME280;5651;50.926;4.718;2022-09-27T01:47:56;99824.25;;;10.35;100.00
11190;BME280;5651;50.926;4.718;2022-09-27T01:50:29;99830.25;;;10.40;100.00
11190;BME280;5651;50.926;4.718;2022-09-27T01:53:22;99819.28;;;10.24;100.00
11190;BME280;5651;50.926;4.718;2022-09-27T01:55:50;99822.00;;;10.18;100.00
11190;BME280;5651;50.926;4.718;2022-09-27T01:58:23;99815.97;;;10.16;100.00
11190;BME280;5651;50.926;4.718;2022-09-27T02:00:52;99816.72;;;10.21;100.00
11190;BME280;5651;50.926;4.718;2022-09-27T02:03:22;99818.59;;;10.14;100.00
11190;BME280;5651;50.926;4.718;2022-09-27T02:05:52;99820.41;;;10.09;100.00
11190;BME280;5651;50.926;4.718;2022-09-27T02:10:55;99824.03;;;10.04;100.00
11190;BME280;5651;50.926;4.718;2022-09-27T02:13:33;99819.53;;;10.10;100.00
11190;BME280;5651;50.926;4.718;2022-09-27T02:16:12;99841.19;;;10.12;100.00
11190;BME280;5651;50.926;4.718;2022-09-27T02:19:16;99844.03;;;9.98;100.00
11190;BME280;5651;50.926;4.718;2022-09-27T02:25:27;99836.28;;;9.97;100.00
11190;BME280;5651;50.926;4.718;2022-09-27T02:27:37;99849.22;;;10.02;100.00
11190;BME280;5651;50.926;4.718;2022-09-27T02:30:09;99847.56;;;9.96;100.00
11190;BME280;5651;50.926;4.718;2022-09-27T02:32:38;99840.72;;;9.92;100.00
11190;BME280;5651;50.926;4.718;2022-09-27T02:35:10;99846.84;;;9.89;100.00
11190;BME280;5651;50.926;4.718;2022-09-27T02:37:38;99841.59;;;9.91;100.00
11190;BME280;5651;50.926;4.718;2022-09-27T02:40:04;99846.72;;;9.95;100.00
11190;BME280;5651;50.926;4.718;2022-09-27T02:42:31;99846.84;;;9.89;100.00
11190;BME280;5651;50.926;4.718;2022-09-27T02:44:58;99846.84;;;9.89;100.00
11190;BME280;5651;50.926;4.718;2022-09-27T02:55:59;99845.88;;;9.93;100.00
11190;BME280;5651;50.926;4.718;2022-09-27T03:01:53;99847.41;;;10.05;100.00
11190;BME280;5651;50.926;4.718;2022-09-27T03:04:47;99833.63;;;9.98;100.00
11190;BME280;5651;50.926;4.718;2022-09-27T03:07:18;99840.72;;;9.92;100.00
11190;BME280;5651;50.926;4.718;2022-09-27T03:09:48;99841.66;;;9.88;100.00
11190;BME280;5651;50.926;4.718;2022-09-27T03:12:15;99849.34;;;9.94;100.00
11190;BME280;5651;50.926;4.718;2022-09-27T03:14:55;99848.44;;;9.95;100.00
11190;BME280;5651;50.926;4.718;2022-09-27T03:17:21;99854.66;;;9.89;100.00
11190;BME280;5651;50.926;4.718;2022-09-27T03:19:47;99851.28;;;9.82;100.00
11190;BME280;5651;50.926;4.718;2022-09-27T03:22:13;99847.84;;;9.80;100.00
11190;BME280;5651;50.926;4.718;2022-09-27T03:24:39;99854.81;;;9.78;100.00
11190;BME280;5651;50.926;4.718;2022-09-27T03:27:05;99847.88;;;9.79;100.00
11190;BME280;5651;50.926;4.718;2022-09-27T03:29:31;99854.81;;;9.80;100.00
11190;BME280;5651;50.926;4.718;2022-09-27T03:31:57;99858.25;;;9.80;100.00
11190;BME280;5651;50.926;4.718;2022-09-27T03:34:23;99853.94;;;9.79;100.00
11190;BME280;5651;50.926;4.718;2022-09-27T03:36:49;99860.13;;;9.72;100.00
11190;BME280;5651;50.926;4.718;2022-09-27T03:39:15;99855.00;;;9.69;100.00
11190;BME280;5651;50.926;4.718;2022-09-27T03:41:41;99859.31;;;9.70;100.00
11190;BME280;5651;50.926;4.718;2022-09-27T03:44:06;99864.53;;;9.70;100.00
11190;BME280;5651;50.926;4.718;2022-09-27T03:46:33;99867.13;;;9.68;100.00
11190;BME280;5651;50.926;4.718;2022-09-27T03:48:58;99864.63;;;9.62;100.00
11190;BME280;5651;50.926;4.718;2022-09-27T03:51:25;99863.72;;;9.65;100.00
11190;BME280;5651;50.926;4.718;2022-09-27T03:53:50;99859.34;;;9.67;100.00
11190;BME280;5651;50.926;4.718;2022-09-27T03:56:17;99863.72;;;9.66;100.00
11190;BME280;5651;50.926;4.718;2022-09-27T03:58:42;99852.50;;;9.63;100.00
11190;BME280;5651;50.926;4.718;2022-09-27T04:01:09;99844.69;;;9.61;100.00
11190;BME280;5651;50.926;4.718;2022-09-27T04:03:34;99843.88;;;9.59;100.00
11190;BME280;5651;50.926;4.718;2022-09-27T04:06:01;99837.84;;;9.56;100.00
11190;BME280;5651;50.926;4.718;2022-09-27T04:08:27;99836.06;;;9.59;100.00
11190;BME280;5651;50.926;4.718;2022-09-27T04:10:55;99841.00;;;9.75;100.00
11190;BME280;5651;50.926;4.718;2022-09-27T04:13:21;99841.06;;;9.72;100.00
11190;BME280;5651;50.926;4.718;2022-09-27T04:15:47;99840.25;;;9.68;100.00
11190;BME280;5651;50.926;4.718;2022-09-27T04:18:13;99834.38;;;9.57;100.00
11190;BME280;5651;50.926;4.718;2022-09-27T04:20:39;99824.84;;;9.56;100.00
11190;BME280;5651;50.926;4.718;2022-09-27T04:23:05;99831.88;;;9.50;100.00
11190;BME280;5651;50.926;4.718;2022-09-27T04:25:31;99832.63;;;9.59;100.00
11190;BME280;5651;50.926;4.718;2022-09-27T04:28:00;99828.19;;;9.64;100.00
11190;BME280;5651;50.926;4.718;2022-09-27T04:30:28;99840.53;;;9.52;100.00
11190;BME280;5651;50.926;4.718;2022-09-27T04:32:54;99826.75;;;9.47;100.00
11190;BME280;5651;50.926;4.718;2022-09-27T04:35:19;99831.16;;;9.44;100.00
11190;BME280;5651;50.926;4.718;2022-09-27T04:38:04;99834.63;;;9.43;100.00
11190;BME280;5651;50.926;4.718;2022-09-27T04:40:33;99845.97;;;9.37;100.00
11190;BME280;5651;50.926;4.718;2022-09-27T04:43:00;99835.59;;;9.34;100.00
11190;BME280;5651;50.926;4.718;2022-09-27T04:45:25;99840.75;;;9.40;100.00
11190;BME280;5651;50.926;4.718;2022-09-27T04:47:51;99841.63;;;9.38;100.00
11190;BME280;5651;50.926;4.718;2022-09-27T04:50:17;99844.25;;;9.36;100.00
11190;BME280;5651;50.926;4.718;2022-09-27T04:52:52;99833.84;;;9.36;100.00
11190;BME280;5651;50.926;4.718;2022-09-27T04:55:19;99832.03;;;9.41;100.00
11190;BME280;5651;50.926;4.718;2022-09-27T04:57:45;99832.84;;;9.46;100.00
11190;BME280;5651;50.926;4.718;2022-09-27T05:00:11;99841.63;;;9.39;100.00
11190;BME280;5651;50.926;4.718;2022-09-27T05:02:38;99853.00;;;9.30;100.00
11190;BME280;5651;50.926;4.718;2022-09-27T05:05:04;99849.63;;;9.25;100.00
11190;BME280;5651;50.926;4.718;2022-09-27T05:07:33;99846.19;;;9.25;100.00
11190;BME280;5651;50.926;4.718;2022-09-27T05:09:59;99847.84;;;9.29;100.00
11190;BME280;5651;50.926;4.718;2022-09-27T05:12:25;99849.56;;;9.30;100.00
11190;BME280;5651;50.926;4.718;2022-09-27T05:14:52;99853.84;;;9.32;100.00
11190;BME280;5651;50.926;4.718;2022-09-27T05:17:18;99849.47;;;9.34;100.00
11190;BME280;5651;50.926;4.718;2022-09-27T05:19:45;99847.63;;;9.41;100.00
11190;BME280;5651;50.926;4.718;2022-09-27T05:22:11;99850.09;;;9.50;100.00
11190;BME280;5651;50.926;4.718;2022-09-27T05:24:36;99852.75;;;9.46;100.00
11190;BME280;5651;50.926;4.718;2022-09-27T05:27:03;99851.13;;;9.40;100.00
11190;BME280;5651;50.926;4.718;2022-09-27T05:29:33;99854.50;;;9.45;100.00
11190;BME280;5651;50.926;4.718;2022-09-27T05:32:00;99854.56;;;9.42;100.00
11190;BME280;5651;50.926;4.718;2022-09-27T05:34:26;99855.50;;;9.38;100.00
11190;BME280;5651;50.926;4.718;2022-09-27T05:36:52;99859.00;;;9.35;100.00
11190;BME280;5651;50.926;4.718;2022-09-27T05:39:17;99858.19;;;9.30;100.00
11190;BME280;5651;50.926;4.718;2022-09-27T05:41:44;99860.00;;;9.27;100.00
11190;BME280;5651;50.926;4.718;2022-09-27T05:44:11;99853.91;;;9.28;100.00
11190;BME280;5651;50.926;4.718;2022-09-27T05:46:38;99852.16;;;9.30;100.00
11190;BME280;5651;50.926;4.718;2022-09-27T05:49:04;99852.13;;;9.31;100.00
11190;BME280;5651;50.926;4.718;2022-09-27T05:51:31;99851.22;;;9.34;100.00
11190;BME280;5651;50.926;4.718;2022-09-27T05:53:57;99853.78;;;9.37;100.00
11190;BME280;5651;50.926;4.718;2022-09-27T05:56:23;99851.19;;;9.37;100.00
11190;BME280;5651;50.926;4.718;2022-09-27T05:58:50;99852.84;;;9.40;100.00
11190;BME280;5651;50.926;4.718;2022-09-27T06:01:16;99858.75;;;9.49;100.00
11190;BME280;5651;50.926;4.718;2022-09-27T06:03:42;99855.13;;;9.60;100.00
11190;BME280;5651;50.926;4.718;2022-09-27T06:06:08;99841.25;;;9.61;100.00
11190;BME280;5651;50.926;4.718;2022-09-27T06:08:37;99843.78;;;9.65;100.00
11190;BME280;5651;50.926;4.718;2022-09-27T06:11:06;99849.00;;;9.64;100.00
11190;BME280;5651;50.926;4.718;2022-09-27T06:13:32;99850.72;;;9.65;100.00
11190;BME280;5651;50.926;4.718;2022-09-27T06:15:59;99845.56;;;9.62;100.00
11190;BME280;5651;50.926;4.718;2022-09-27T06:18:25;99848.16;;;9.63;100.00
11190;BME280;5651;50.926;4.718;2022-09-27T06:20:50;99838.53;;;9.67;100.00
11190;BME280;5651;50.926;4.718;2022-09-27T06:23:18;99835.78;;;9.75;100.00
11190;BME280;5651;50.926;4.718;2022-09-27T06:25:45;99839.31;;;9.74;100.00
11190;BME280;5651;50.926;4.718;2022-09-27T06:28:14;99847.16;;;9.71;100.00
11190;BME280;5651;50.926;4.718;2022-09-27T06:30:43;99834.16;;;9.71;100.00
11190;BME280;5651;50.926;4.718;2022-09-27T06:33:11;99836.72;;;9.74;100.00
11190;BME280;5651;50.926;4.718;2022-09-27T06:35:37;99835.00;;;9.73;100.00
11190;BME280;5651;50.926;4.718;2022-09-27T06:38:05;99833.25;;;9.72;100.00
11190;BME280;5651;50.926;4.718;2022-09-27T06:40:35;99841.69;;;9.86;100.00
11190;BME280;5651;50.926;4.718;2022-09-27T06:43:08;99832.09;;;9.88;100.00
11190;BME280;5651;50.926;4.718;2022-09-27T06:45:35;99838.19;;;9.87;100.00
11190;BME280;5651;50.926;4.718;2022-09-27T06:48:03;99841.59;;;9.91;100.00
11190;BME280;5651;50.926;4.718;2022-09-27T06:50:30;99841.63;;;9.89;100.00
11190;BME280;5651;50.926;4.718;2022-09-27T06:52:57;99836.44;;;9.88;100.00
11190;BME280;5651;50.926;4.718;2022-09-27T06:55:24;99843.97;;;10.03;100.00
11190;BME280;5651;50.926;4.718;2022-09-27T06:57:56;99838.03;;;9.95;100.00
11190;BME280;5651;50.926;4.718;2022-09-27T07:00:41;99840.59;;;9.98;100.00
11190;BME280;5651;50.926;4.718;2022-09-27T07:03:11;99843.91;;;10.06;100.00
11190;BME280;5651;50.926;4.718;2022-09-27T07:05:39;99848.31;;;10.03;100.00
11190;BME280;5651;50.926;4.718;2022-09-27T07:08:09;99852.56;;;10.07;100.00
11190;BME280;5651;50.926;4.718;2022-09-27T07:10:38;99857.91;;;10.01;100.00
11190;BME280;5651;50.926;4.718;2022-09-27T07:13:05;99848.34;;;10.01;100.00
11190;BME280;5651;50.926;4.718;2022-09-27T07:15:33;99864.75;;;10.06;100.00
11190;BME280;5651;50.926;4.718;2022-09-27T07:18:01;99857.66;;;10.14;100.00
11190;BME280;5651;50.926;4.718;2022-09-27T07:20:27;99865.38;;;10.18;100.00
11190;BME280;5651;50.926;4.718;2022-09-27T07:22:57;99863.88;;;10.06;100.00
11190;BME280;5651;50.926;4.718;2022-09-27T07:25:24;99868.81;;;10.20;100.00
11190;BME280;5651;50.926;4.718;2022-09-27T07:27:50;99872.31;;;10.19;100.00
11190;BME280;5651;50.926;4.718;2022-09-27T07:30:20;99874.78;;;10.26;100.00
11190;BME280;5651;50.926;4.718;2022-09-27T07:32:46;99868.53;;;10.37;100.00
11190;BME280;5651;50.926;4.718;2022-09-27T07:35:12;99869.41;;;10.34;100.00
11190;BME280;5651;50.926;4.718;2022-09-27T07:37:41;99868.44;;;10.41;100.00
11190;BME280;5651;50.926;4.718;2022-09-27T07:40:08;99871.78;;;10.48;100.00
11190;BME280;5651;50.926;4.718;2022-09-27T07:42:35;99864.81;;;10.49;100.00
11190;BME280;5651;50.926;4.718;2022-09-27T07:45:06;99860.44;;;10.51;100.00
11190;BME280;5651;50.926;4.718;2022-09-27T07:47:32;99866.84;;;10.33;100.00
11190;BME280;5651;50.926;4.718;2022-09-27T07:49:58;99861.47;;;10.43;100.00
11190;BME280;5651;50.926;4.718;2022-09-27T07:52:24;99864.91;;;10.44;100.00
11190;BME280;5651;50.926;4.718;2022-09-27T07:54:50;99870.66;;;10.61;100.00
11190;BME280;5651;50.926;4.718;2022-09-27T07:57:16;99871.16;;;10.77;100.00
11190;BME280;5651;50.926;4.718;2022-09-27T07:59:45;99875.78;;;11.05;100.00
11190;BME280;5651;50.926;4.718;2022-09-27T08:02:16;99873.03;;;11.12;100.00
11190;BME280;5651;50.926;4.718;2022-09-27T08:04:42;99875.72;;;11.08;100.00
11190;BME280;5651;50.926;4.718;2022-09-27T08:07:12;99872.84;;;11.19;100.00
11190;BME280;5651;50.926;4.718;2022-09-27T08:09:38;99876.09;;;11.29;100.00
11190;BME280;5651;50.926;4.718;2022-09-27T08:12:04;99888.50;;;11.21;100.00
11190;BME280;5651;50.926;4.718;2022-09-27T08:14:30;99879.53;;;11.31;100.00
11190;BME280;5651;50.926;4.718;2022-09-27T08:16:56;99888.34;;;11.27;100.00
11190;BME280;5651;50.926;4.718;2022-09-27T08:19:22;99882.03;;;11.36;100.00
11190;BME280;5651;50.926;4.718;2022-09-27T08:21:50;99892.69;;;11.26;100.00
11190;BME280;5651;50.926;4.718;2022-09-27T08:24:16;99900.50;;;11.28;100.00
11190;BME280;5651;50.926;4.718;2022-09-27T08:26:42;99905.63;;;11.31;100.00
11190;BME280;5651;50.926;4.718;2022-09-27T08:29:08;99899.72;;;11.24;100.00
11190;BME280;5651;50.926;4.718;2022-09-27T08:31:34;99903.19;;;11.23;100.00
11190;BME280;5651;50.926;4.718;2022-09-27T08:33:59;99891.91;;;11.23;100.00
11190;BME280;5651;50.926;4.718;2022-09-27T08:36:26;99897.78;;;11.31;100.00
11190;BME280;5651;50.926;4.718;2022-09-27T08:38:52;99892.53;;;11.34;100.00
11190;BME280;5651;50.926;4.718;2022-09-27T08:52:18;99912.50;;;11.34;100.00
11190;BME280;5651;50.926;4.718;2022-09-27T08:54:45;99909.44;;;11.54;100.00
11190;BME280;5651;50.926;4.718;2022-09-27T08:57:12;99910.06;;;11.64;98.26
11190;BME280;5651;50.926;4.718;2022-09-27T08:59:50;99913.72;;;11.56;100.00
11190;BME280;5651;50.926;4.718;2022-09-27T09:02:20;99923.78;;;11.73;99.28
11190;BME280;5651;50.926;4.718;2022-09-27T09:04:54;99915.28;;;11.64;100.00
11190;BME280;5651;50.926;4.718;2022-09-27T09:08:17;99917.09;;;11.62;100.00
11190;BME280;5651;50.926;4.718;2022-09-27T09:10:48;99911.16;;;11.55;100.00
11190;BME280;5651;50.926;4.718;2022-09-27T09:16:30;99915.66;;;11.48;100.00
11190;BME280;5651;50.926;4.718;2022-09-27T09:24:40;99923.41;;;11.51;100.00
11190;BME280;5651;50.926;4.718;2022-09-27T09:27:25;99916.75;;;11.76;100.00
11190;BME280;5651;50.926;4.718;2022-09-27T09:30:00;99915.28;;;11.65;100.00
11190;BME280;5651;50.926;4.718;2022-09-27T09:35:14;99919.72;;;11.60;100.00
11190;BME280;5651;50.926;4.718;2022-09-27T09:37:47;99916.03;;;11.33;100.00
11190;BME280;5651;50.926;4.718;2022-09-27T09:40:25;99907.72;;;11.54;100.00
11190;BME280;5651;50.926;4.718;2022-09-27T09:45:27;99913.81;;;11.52;100.00
11190;BME280;5651;50.926;4.718;2022-09-27T09:48:04;99911.31;;;11.49;100.00
11190;BME280;5651;50.926;4.718;2022-09-27T09:50:42;99913.28;;;11.39;100.00
11190;BME280;5651;50.926;4.718;2022-09-27T09:55:42;99901.75;;;11.48;100.00
11190;BME280;5651;50.926;4.718;2022-09-27T10:00:40;99897.53;;;11.44;100.00
11190;BME280;5651;50.926;4.718;2022-09-27T10:03:06;99900.00;;;11.48;100.00
11190;BME280;5651;50.926;4.718;2022-09-27T10:05:32;99891.59;;;11.37;100.00
11190;BME280;5651;50.926;4.718;2022-09-27T10:08:01;99890.34;;;11.52;100.00
11190;BME280;5651;50.926;4.718;2022-09-27T10:10:29;99892.84;;;11.56;100.00
11190;BME280;5651;50.926;4.718;2022-09-27T10:12:55;99895.34;;;11.61;100.00
11190;BME280;5651;50.926;4.718;2022-09-27T10:15:23;99889.91;;;11.70;100.00
11190;BME280;5651;50.926;4.718;2022-09-27T10:17:53;99887.19;;;11.75;100.00
11190;BME280;5651;50.926;4.718;2022-09-27T10:20:40;99893.44;;;12.04;100.00
11190;BME280;5651;50.926;4.718;2022-09-27T10:23:19;99889.22;;;12.00;100.00
11190;BME280;5651;50.926;4.718;2022-09-27T10:25:53;99884.06;;;12.30;100.00
11190;BME280;5651;50.926;4.718;2022-09-27T10:28:42;99871.13;;;12.25;100.00
11190;BME280;5651;50.926;4.718;2022-09-27T10:31:16;99887.16;;;12.44;100.00
11190;BME280;5651;50.926;4.718;2022-09-27T10:34:01;99881.94;;;12.43;100.00
11190;BME280;5651;50.926;4.718;2022-09-27T10:36:31;99876.44;;;12.54;100.00
11190;BME280;5651;50.926;4.718;2022-09-27T10:39:03;99883.22;;;12.61;100.00
11190;BME280;5651;50.926;4.718;2022-09-27T10:41:37;99878.81;;;12.61;100.00
11190;BME280;5651;50.926;4.718;2022-09-27T10:46:47;99874.00;;;12.77;99.53
11190;BME280;5651;50.926;4.718;2022-09-27T10:52:01;99867.97;;;13.04;99.38
11190;BME280;5651;50.926;4.718;2022-09-27T10:54:28;99861.03;;;13.31;100.00
11190;BME280;5651;50.926;4.718;2022-09-27T10:57:00;99851.38;;;13.33;99.12
11190;BME280;5651;50.926;4.718;2022-09-27T10:59:31;99849.59;;;13.35;98.88
11190;BME280;5651;50.926;4.718;2022-09-27T11:01:58;99851.22;;;13.38;96.66
11190;BME280;5651;50.926;4.718;2022-09-27T11:04:36;99841.41;;;13.46;97.75
11190;BME280;5651;50.926;4.718;2022-09-27T11:07:17;99845.28;;;13.86;97.63
11190;BME280;5651;50.926;4.718;2022-09-27T11:09:53;99844.81;;;14.00;97.09
11190;BME280;5651;50.926;4.718;2022-09-27T11:12:20;99843.53;;;14.12;97.15
11190;BME280;5651;50.926;4.718;2022-09-27T11:14:52;99845.06;;;14.18;97.33
11190;BME280;5651;50.926;4.718;2022-09-27T11:20:07;99845.94;;;14.42;94.04
11190;BME280;5651;50.926;4.718;2022-09-27T11:23:15;99831.63;;;14.51;92.94
11190;BME280;5651;50.926;4.718;2022-09-27T11:31:44;99836.03;;;14.50;88.39
11190;BME280;5651;50.926;4.718;2022-09-27T11:38:20;99856.69;;;13.58;88.27
11190;BME280;5651;50.926;4.718;2022-09-27T11:44:47;99883.28;;;12.88;87.03
11190;BME280;5651;50.926;4.718;2022-09-27T11:56:35;99876.84;;;10.97;89.20
11190;BME280;5651;50.926;4.718;2022-09-27T11:59:07;99867.28;;;10.97;90.83
11190;BME280;5651;50.926;4.718;2022-09-27T12:09:35;99856.47;;;11.50;96.19
11190;BME280;5651;50.926;4.718;2022-09-27T12:12:18;99860.25;;;11.73;97.81
11190;BME280;5651;50.926;4.718;2022-09-27T12:14:49;99855.63;;;11.84;97.26
11190;BME280;5651;50.926;4.718;2022-09-27T12:17:21;99846.63;;;11.98;98.15
11190;BME280;5651;50.926;4.718;2022-09-27T12:19:51;99848.53;;;12.24;96.33
11190;BME280;5651;50.926;4.718;2022-09-27T12:22:21;99843.25;;;12.56;97.30
11190;BME280;5651;50.926;4.718;2022-09-27T12:24:49;99831.69;;;12.94;97.62
11190;BME280;5651;50.926;4.718;2022-09-27T12:27:45;99833.41;;;13.22;95.90
11190;BME280;5651;50.926;4.718;2022-09-27T12:30:12;99818.09;;;13.65;96.20
11190;BME280;5651;50.926;4.718;2022-09-27T12:35:20;99830.53;;;14.09;90.07
11190;BME280;5651;50.926;4.718;2022-09-27T12:40:32;99830.25;;;14.88;90.22
11190;BME280;5651;50.926;4.718;2022-09-27T12:43:04;99829.53;;;15.07;89.19
11190;BME280;5651;50.926;4.718;2022-09-27T12:48:31;99840.47;;;15.61;85.83
11190;BME280;5651;50.926;4.718;2022-09-27T12:51:09;99842.09;;;15.43;83.89
11190;BME280;5651;50.926;4.718;2022-09-27T13:13:22;99793.00;;;18.73;80.88
11190;BME280;5651;50.926;4.718;2022-09-27T13:15:55;99793.50;;;18.48;70.99
11190;BME280;5651;50.926;4.718;2022-09-27T13:18:50;99794.47;;;18.63;70.48
11190;BME280;5651;50.926;4.718;2022-09-27T13:24:29;99801.97;;;17.70;69.92
11190;BME280;5651;50.926;4.718;2022-09-27T13:26:55;99804.63;;;16.98;69.67
11190;BME280;5651;50.926;4.718;2022-09-27T13:29:31;99815.44;;;16.73;72.82
11190;BME280;5651;50.926;4.718;2022-09-27T13:42:51;99815.91;;;14.74;80.25
11190;BME280;5651;50.926;4.718;2022-09-27T13:48:15;99804.16;;;14.37;82.38
11190;BME280;5651;50.926;4.718;2022-09-27T13:55:45;99800.13;;;14.76;84.54
11190;BME280;5651;50.926;4.718;2022-09-27T14:00:53;99787.09;;;14.97;83.59
11190;BME280;5651;50.926;4.718;2022-09-27T14:03:35;99794.22;;;14.93;84.11
11190;BME280;5651;50.926;4.718;2022-09-27T14:06:06;99790.06;;;14.87;84.13
11190;BME280;5651;50.926;4.718;2022-09-27T14:08:49;99784.34;;;14.78;83.48
11190;BME280;5651;50.926;4.718;2022-09-27T14:11:26;99786.72;;;14.60;83.77
11190;BME280;5651;50.926;4.718;2022-09-27T14:13:53;99780.06;;;14.75;83.72
11190;BME280;5651;50.926;4.718;2022-09-27T14:16:20;99771.41;;;14.73;83.74
11190;BME280;5651;50.926;4.718;2022-09-27T14:18:49;99778.03;;;14.82;83.37
11190;BME280;5651;50.926;4.718;2022-09-27T14:24:42;99774.97;;;14.93;83.44
11190;BME280;5651;50.926;4.718;2022-09-27T14:27:21;99772.19;;;14.75;82.24
11190;BME280;5651;50.926;4.718;2022-09-27T14:29:54;99784.97;;;14.61;81.52
11190;BME280;5651;50.926;4.718;2022-09-27T14:32:30;99787.06;;;14.51;82.34
11190;BME280;5651;50.926;4.718;2022-09-27T14:37:52;99787.19;;;14.24;82.88
11190;BME280;5651;50.926;4.718;2022-09-27T14:40:19;99775.41;;;14.12;84.57
11190;BME280;5651;50.926;4.718;2022-09-27T14:42:45;99783.16;;;14.15;85.70
11190;BME280;5651;50.926;4.718;2022-09-27T14:45:37;99775.06;;;13.98;84.43
11190;BME280;5651;50.926;4.718;2022-09-27T14:50:59;99774.66;;;14.32;83.98
11190;BME280;5651;50.926;4.718;2022-09-27T14:56:14;99763.84;;;14.41;84.66
11190;BME280;5651;50.926;4.718;2022-09-27T14:58:43;99756.53;;;14.50;85.12
11190;BME280;5651;50.926;4.718;2022-09-27T15:01:18;99757.38;;;14.50;83.85
11190;BME280;5651;50.926;4.718;2022-09-27T15:03:46;99752.03;;;14.53;83.89
11190;BME280;5651;50.926;4.718;2022-09-27T15:06:15;99754.59;;;14.55;84.45
11190;BME280;5651;50.926;4.718;2022-09-27T15:08:41;99752.38;;;14.44;84.06
11190;BME280;5651;50.926;4.718;2022-09-27T15:11:10;99752.00;;;14.31;84.87
11190;BME280;5651;50.926;4.718;2022-09-27T15:13:36;99743.63;;;14.21;84.28
11190;BME280;5651;50.926;4.718;2022-09-27T15:16:15;99747.66;;;14.06;84.74
11190;BME280;5651;50.926;4.718;2022-09-27T15:18:49;99753.19;;;13.99;85.57
11190;BME280;5651;50.926;4.718;2022-09-27T15:21:28;99773.16;;;13.77;86.29
11190;BME280;5651;50.926;4.718;2022-09-27T15:23:55;99790.97;;;13.41;87.10
11190;BME280;5651;50.926;4.718;2022-09-27T15:26:32;99789.16;;;13.43;85.25
11190;BME280;5651;50.926;4.718;2022-09-27T15:29:00;99781.91;;;13.24;86.57
11190;BME280;5651;50.926;4.718;2022-09-27T15:31:33;99778.84;;;12.83;88.64
11190;BME280;5651;50.926;4.718;2022-09-27T15:34:01;99784.31;;;12.47;88.66
11190;BME280;5651;50.926;4.718;2022-09-27T15:39:45;99767.50;;;12.26;89.78
11190;BME280;5651;50.926;4.718;2022-09-27T15:42:12;99755.38;;;12.23;90.47
11190;BME280;5651;50.926;4.718;2022-09-27T15:52:47;99732.38;;;13.18;93.45
11190;BME280;5651;50.926;4.718;2022-09-27T15:55:18;99729.56;;;13.51;92.77
11190;BME280;5651;50.926;4.718;2022-09-27T15:57:49;99726.19;;;13.73;91.73
11190;BME280;5651;50.926;4.718;2022-09-27T16:00:17;99716.97;;;13.86;90.69
11190;BME280;5651;50.926;4.718;2022-09-27T16:02:45;99716.44;;;13.76;90.33
11190;BME280;5651;50.926;4.718;2022-09-27T16:05:12;99714.44;;;13.59;89.68
11190;BME280;5651;50.926;4.718;2022-09-27T16:07:38;99722.03;;;13.42;89.86
11190;BME280;5651;50.926;4.718;2022-09-27T16:10:44;99714.97;;;13.44;89.39
11190;BME280;5651;50.926;4.718;2022-09-27T16:13:12;99706.88;;;13.25;90.27
11190;BME280;5651;50.926;4.718;2022-09-27T16:15:38;99698.94;;;13.28;89.63
11190;BME280;5651;50.926;4.718;2022-09-27T16:18:05;99695.75;;;13.18;90.89
11190;BME280;5651;50.926;4.718;2022-09-27T16:20:31;99692.47;;;13.13;91.33
11190;BME280;5651;50.926;4.718;2022-09-27T16:22:57;99695.34;;;13.05;91.98
11190;BME280;5651;50.926;4.718;2022-09-27T16:25:23;99689.03;;;13.11;91.70
11190;BME280;5651;50.926;4.718;2022-09-27T16:27:49;99684.31;;;12.95;93.50
11190;BME280;5651;50.926;4.718;2022-09-27T16:30:17;99674.72;;;12.96;93.64
11190;BME280;5651;50.926;4.718;2022-09-27T16:32:44;99684.28;;;12.97;93.37
11190;BME280;5651;50.926;4.718;2022-09-27T16:35:12;99680.13;;;13.16;92.07
11190;BME280;5651;50.926;4.718;2022-09-27T16:37:39;99679.81;;;13.26;90.32
11190;BME280;5651;50.926;4.718;2022-09-27T16:40:07;99680.94;;;13.19;91.10